Time;durP1;ratioP1;P1;durP2;ratioP2;P2;SDS_P1;SDS_P2;PMS_P1;PMS_P2;Temp;Humidity;BMP_temperature;BMP_pressure;BME280_temperature;BME280_humidity;BME280_pressure;Samples;Min_cycle;Max_cycle;Signal;HPM_P1;HPM_P2
2022/12/10 00:01:10;;;;;;;;;;;-1.10;99.90;;;;;;12370651;28;19926;-85
2022/12/10 00:07:11;;;;;;;;;;;-1.20;99.90;;;;;;12387694;28;19934;-85
2022/12/10 00:13:13;;;;;;;;;;;-1.10;99.90;;;;;;12373071;28;19926;-85
2022/12/10 00:19:15;;;;;;;;;;;-1.00;99.90;;;;;;12403144;28;19930;-85
2022/12/10 00:25:16;;;;;;;;;;;-1.00;99.90;;;;;;12376013;28;19926;-85
2022/12/10 00:31:23;;;;;;;;;;;-0.90;99.90;;;;;;12364752;28;19933;-85
2022/12/10 00:37:25;;;;;;;;;;;-0.90;99.90;;;;;;12378428;28;19929;-85
2022/12/10 00:43:26;;;;;;;;;;;-1.00;99.90;;;;;;12372477;28;19949;-85
2022/12/10 00:49:28;;;;;;;;;;;-1.10;99.90;;;;;;12383292;28;20287;-85
2022/12/10 00:55:30;;;;;;;;;;;-1.10;99.90;;;;;;12375997;28;20432;-85
2022/12/10 01:01:33;;;;;;;;;;;-1.00;99.90;;;;;;12373129;28;20401;-85
2022/12/10 01:07:35;;;;;;;;;;;-1.00;99.90;;;;;;12381674;28;20382;-85
2022/12/10 01:13:37;;;;;;;;;;;-1.00;99.90;;;;;;12380284;28;20275;-85
2022/12/10 01:19:38;;;;;;;;;;;-0.90;99.90;;;;;;12396035;28;19941;-85
2022/12/10 01:25:40;;;;;;;;;;;-0.80;99.90;;;;;;12374027;28;19930;-85
2022/12/10 01:31:42;;;;;;;;;;;-0.70;99.90;;;;;;12388397;28;19953;-85
2022/12/10 01:37:44;;;;;;;;;;;-0.60;99.90;;;;;;12398270;28;19925;-85
2022/12/10 01:43:51;;;;;;;;;;;-0.80;99.90;;;;;;12376501;28;19926;-85
2022/12/10 01:49:53;;;;;;;;;;;-0.80;99.90;;;;;;12379731;28;19933;-85
2022/12/10 01:55:54;;;;;;;;;;;-0.80;99.90;;;;;;12369798;28;19926;-85
2022/12/10 02:02:08;;;;;;;;;;;-0.80;99.90;;;;;;12364714;28;19930;-85
2022/12/10 02:08:25;;;;;;;;;;;-0.90;99.90;;;;;;12381429;28;19969;-85
2022/12/10 02:14:36;;;;;;;;;;;-0.70;99.90;;;;;;12396252;28;19933;-85
2022/12/10 02:20:40;;;;;;;;;;;-0.70;99.90;;;;;;12391720;28;19926;-85
2022/12/10 02:27:01;;;;;;;;;;;-0.60;99.90;;;;;;12375546;28;19926;-85
2022/12/10 02:33:03;;;;;;;;;;;-0.70;99.90;;;;;;12372440;28;19930;-85
2022/12/10 02:39:09;;;;;;;;;;;-0.80;99.90;;;;;;12375270;28;20378;-85
2022/12/10 02:52:19;;;;;;;;;;;-0.70;99.90;;;;;;12398111;28;20290;-85
2022/12/10 02:58:32;;;;;;;;;;;-0.80;99.90;;;;;;12372230;28;19926;-85
2022/12/10 03:04:46;;;;;;;;;;;-0.70;99.90;;;;;;12380375;28;19933;-85
2022/12/10 03:10:52;;;;;;;;;;;-0.70;99.90;;;;;;12370795;28;19930;-84
2022/12/10 03:16:56;;;;;;;;;;;-0.70;99.90;;;;;;12355882;28;19926;-85
2022/12/10 03:22:58;;;;;;;;;;;-0.70;99.90;;;;;;12357157;28;19965;-85
2022/12/10 03:29:06;;;;;;;;;;;-0.60;99.90;;;;;;12366951;28;19934;-85
2022/12/10 03:35:08;;;;;;;;;;;-0.70;99.90;;;;;;12352732;28;19926;-85
2022/12/10 03:41:10;;;;;;;;;;;-0.70;99.90;;;;;;12350510;28;19933;-85
2022/12/10 03:47:13;;;;;;;;;;;-0.80;99.90;;;;;;12354505;28;19925;-85
2022/12/10 03:53:15;;;;;;;;;;;-0.80;99.90;;;;;;12374227;28;19926;-85
2022/12/10 03:59:17;;;;;;;;;;;-0.70;99.90;;;;;;12355707;28;19933;-85
2022/12/10 04:05:18;;;;;;;;;;;-0.70;99.90;;;;;;12368050;28;21697;-85
2022/12/10 04:11:20;;;;;;;;;;;-0.60;99.90;;;;;;12355656;28;19933;-85
2022/12/10 04:17:22;;;;;;;;;;;-0.60;99.90;;;;;;12374481;28;19930;-85
2022/12/10 04:29:44;;;;;;;;;;;-0.70;99.90;;;;;;12353489;28;19930;-85
2022/12/10 04:35:46;;;;;;;;;;;-0.80;99.90;;;;;;12355200;28;19925;-85
2022/12/10 04:41:48;;;;;;;;;;;-0.90;99.90;;;;;;12348922;28;19929;-85
2022/12/10 04:47:49;;;;;;;;;;;-0.90;99.90;;;;;;12356274;28;19960;-85
2022/12/10 04:53:51;;;;;;;;;;;-0.90;99.90;;;;;;12353118;28;19933;-85
2022/12/10 04:59:53;;;;;;;;;;;-0.90;99.90;;;;;;12350988;28;20414;-85
2022/12/10 05:05:54;;;;;;;;;;;-0.90;99.90;;;;;;12352670;28;19932;-85
2022/12/10 05:11:56;;;;;;;;;;;-0.90;99.90;;;;;;12364610;28;19926;-85
2022/12/10 05:17:58;;;;;;;;;;;-0.80;99.90;;;;;;12372142;28;19926;-85
2022/12/10 05:23:59;;;;;;;;;;;-0.80;99.90;;;;;;12349421;28;19926;-85
2022/12/10 05:30:01;;;;;;;;;;;-0.70;99.90;;;;;;12359562;28;19925;-85
2022/12/10 05:36:03;;;;;;;;;;;-0.70;99.90;;;;;;12356189;28;19925;-85
2022/12/10 05:42:05;;;;;;;;;;;-0.70;99.90;;;;;;12353608;28;19926;-85
2022/12/10 05:48:08;;;;;;;;;;;-0.60;99.90;;;;;;12356034;28;20410;-85
2022/12/10 05:54:10;;;;;;;;;;;-0.60;99.90;;;;;;12355035;28;20076;-85
2022/12/10 06:00:12;;;;;;;;;;;-0.60;99.90;;;;;;12352189;28;19941;-85
2022/12/10 06:06:13;;;;;;;;;;;-0.60;99.90;;;;;;12345924;28;19933;-85
2022/12/10 06:12:15;;;;;;;;;;;-0.60;99.90;;;;;;12359303;28;20390;-85
2022/12/10 06:18:17;;;;;;;;;;;-0.60;99.90;;;;;;12359949;28;19933;-86
2022/12/10 06:24:18;;;;;;;;;;;-0.70;99.90;;;;;;12349532;28;19934;-86
2022/12/10 06:30:20;;;;;;;;;;;-0.70;99.90;;;;;;12346538;28;19933;-85
2022/12/10 06:36:22;;;;;;;;;;;-0.70;99.90;;;;;;12350363;28;19933;-86
2022/12/10 06:42:23;;;;;;;;;;;-0.70;99.90;;;;;;12343034;28;19925;-86
2022/12/10 06:48:25;;;;;;;;;;;-0.60;99.90;;;;;;12339616;28;19930;-85
2022/12/10 06:54:27;;;;;;;;;;;-0.60;99.90;;;;;;12342314;28;19937;-86
2022/12/10 07:00:28;;;;;;;;;;;-0.70;99.90;;;;;;12341229;28;20326;-85
2022/12/10 07:06:31;;;;;;;;;;;-0.60;99.90;;;;;;12368157;28;19991;-86
2022/12/10 07:12:32;;;;;;;;;;;-0.60;99.90;;;;;;12376989;28;19929;-85
2022/12/10 07:18:34;;;;;;;;;;;-0.60;99.90;;;;;;12351916;28;19926;-86
2022/12/10 07:24:36;;;;;;;;;;;-0.50;99.90;;;;;;12355941;28;20469;-86
2022/12/10 07:30:37;;;;;;;;;;;-0.50;99.90;;;;;;12353991;28;20397;-86
2022/12/10 07:36:39;;;;;;;;;;;-0.60;99.90;;;;;;12364146;28;19936;-86
2022/12/10 07:42:41;;;;;;;;;;;-0.60;99.90;;;;;;12365222;28;19938;-86
2022/12/10 07:48:44;;;;;;;;;;;-0.50;99.90;;;;;;12364369;28;19934;-86
2022/12/10 07:54:45;;;;;;;;;;;-0.50;99.90;;;;;;12365909;28;19930;-86
2022/12/10 08:00:47;;;;;;;;;;;-0.40;99.90;;;;;;12372275;28;19926;-86
2022/12/10 08:06:49;;;;;;;;;;;-0.50;99.90;;;;;;12361988;28;20411;-86
2022/12/10 08:12:50;;;;;;;;;;;-0.40;99.90;;;;;;12388362;28;19926;-86
2022/12/10 08:18:53;;;;;;;;;;;-0.40;99.90;;;;;;12356252;28;19927;-87
2022/12/10 08:24:54;;;;;;;;;;;-0.40;99.90;;;;;;12347026;28;19952;-86
2022/12/10 08:30:56;;;;;;;;;;;-0.30;99.90;;;;;;12378735;28;20120;-86
2022/12/10 08:36:58;;;;;;;;;;;-0.30;99.90;;;;;;12373746;28;20370;-86
2022/12/10 08:43:02;;;;;;;;;;;-0.20;99.90;;;;;;12355849;28;19929;-86
2022/12/10 08:49:05;;;;;;;;;;;-0.20;99.90;;;;;;12371064;28;20024;-86
2022/12/10 08:55:06;;;;;;;;;;;-0.10;99.90;;;;;;12365262;28;20305;-86
2022/12/10 09:01:09;;;;;;;;;;;-0.10;99.90;;;;;;12370145;28;19926;-86
2022/12/10 09:07:11;;;;;;;;;;;-0.10;99.90;;;;;;12357544;28;19972;-86
2022/12/10 09:13:13;;;;;;;;;;;0.00;99.90;;;;;;12383751;28;20309;-86
2022/12/10 09:19:15;;;;;;;;;;;0.00;99.90;;;;;;12405753;28;19932;-87
2022/12/10 09:25:21;;;;;;;;;;;0.20;99.90;;;;;;12413688;28;19929;-86
2022/12/10 09:31:23;;;;;;;;;;;0.20;99.90;;;;;;12419363;28;20005;-87
2022/12/10 09:37:24;;;;;;;;;;;0.20;99.90;;;;;;12405898;28;20257;-87
2022/12/10 09:43:32;;;;;;;;;;;0.30;99.90;;;;;;12396787;28;19929;-86
2022/12/10 09:49:33;;;;;;;;;;;0.30;99.90;;;;;;12425567;28;19924;-86
2022/12/10 09:55:37;;;;;;;;;;;0.20;99.90;;;;;;12392728;28;20001;-87
2022/12/10 10:01:39;;;;;;;;;;;0.30;99.90;;;;;;12411626;28;20294;-86
2022/12/10 10:07:46;;;;;;;;;;;0.50;99.90;;;;;;12407409;28;19914;-86
2022/12/10 10:14:11;;;;;;;;;;;0.50;99.90;;;;;;12395908;28;19926;-86
2022/12/10 10:20:13;;;;;;;;;;;0.50;99.90;;;;;;12415272;28;19921;-87
2022/12/10 10:26:15;;;;;;;;;;;0.60;99.90;;;;;;12394552;28;19926;-86
2022/12/10 10:32:18;;;;;;;;;;;0.70;99.90;;;;;;12402698;28;19954;-86
2022/12/10 10:38:25;;;;;;;;;;;0.70;99.90;;;;;;12399703;28;19930;-87
2022/12/10 10:44:33;;;;;;;;;;;0.60;99.90;;;;;;12414061;28;19929;-86
2022/12/10 10:50:43;;;;;;;;;;;0.70;99.90;;;;;;12401902;28;19926;-86
2022/12/10 10:56:44;;;;;;;;;;;0.50;99.90;;;;;;12364569;28;20370;-86
2022/12/10 11:02:46;;;;;;;;;;;0.50;99.90;;;;;;12373522;28;19926;-86
2022/12/10 11:08:51;;;;;;;;;;;0.70;99.90;;;;;;12378926;28;20472;-86
2022/12/10 11:14:52;;;;;;;;;;;0.90;99.90;;;;;;12381586;28;19933;-86
2022/12/10 11:21:17;;;;;;;;;;;0.90;99.90;;;;;;12360950;28;19940;-86
2022/12/10 11:27:37;;;;;;;;;;;0.80;99.90;;;;;;12367880;28;19937;-86
2022/12/10 11:33:57;;;;;;;;;;;0.70;99.90;;;;;;12377050;28;19926;-86
2022/12/10 11:40:10;;;;;;;;;;;0.60;99.90;;;;;;12341863;28;20393;-86
2022/12/10 11:46:31;;;;;;;;;;;0.70;99.90;;;;;;12346734;28;20023;-86
2022/12/10 11:52:33;;;;;;;;;;;0.70;99.90;;;;;;12308597;28;19926;-86
2022/12/10 11:58:44;;;;;;;;;;;0.80;99.90;;;;;;12274970;28;19938;-86
2022/12/10 12:04:52;;;;;;;;;;;0.60;99.90;;;;;;12276363;28;19926;-86
2022/12/10 12:11:01;;;;;;;;;;;0.70;99.90;;;;;;12281168;28;19927;-86
2022/12/10 12:17:18;;;;;;;;;;;0.70;99.90;;;;;;12302692;28;19926;-87
2022/12/10 12:23:38;;;;;;;;;;;0.80;99.90;;;;;;12280065;28;19934;-86
2022/12/10 12:29:43;;;;;;;;;;;0.70;99.90;;;;;;12276333;28;19941;-87
2022/12/10 12:35:50;;;;;;;;;;;0.80;99.90;;;;;;12264809;28;19934;-86
2022/12/10 12:42:00;;;;;;;;;;;0.70;99.90;;;;;;12286205;28;19935;-86
2022/12/10 12:48:04;;;;;;;;;;;0.80;99.90;;;;;;12279418;28;19934;-86
2022/12/10 12:54:08;;;;;;;;;;;0.80;99.90;;;;;;12283932;28;19937;-86
2022/12/10 13:00:11;;;;;;;;;;;0.80;99.90;;;;;;12275221;28;19942;-86
2022/12/10 13:06:24;;;;;;;;;;;0.90;99.90;;;;;;12285288;28;20343;-86
2022/12/10 13:12:28;;;;;;;;;;;0.80;99.90;;;;;;12292028;28;19931;-87
2022/12/10 13:18:35;;;;;;;;;;;0.90;99.90;;;;;;12288137;28;19931;-86
2022/12/10 13:24:37;;;;;;;;;;;0.80;99.90;;;;;;12273873;28;19930;-87
2022/12/10 13:30:39;;;;;;;;;;;1.00;99.90;;;;;;12281909;28;19949;-86
2022/12/10 13:36:40;;;;;;;;;;;0.80;99.90;;;;;;12282193;28;19937;-86
2022/12/10 13:49:06;;;;;;;;;;;0.70;99.90;;;;;;12303188;28;19933;-86
2022/12/10 13:55:08;;;;;;;;;;;0.60;99.90;;;;;;12370943;28;19934;-86
2022/12/10 14:01:42;;;;;;;;;;;0.50;99.90;;;;;;12366037;28;19968;-86
2022/12/10 14:07:46;;;;;;;;;;;0.50;99.90;;;;;;12381366;28;19932;-86
2022/12/10 14:13:51;;;;;;;;;;;0.50;99.90;;;;;;12386405;28;19929;-87
2022/12/10 14:19:54;;;;;;;;;;;0.50;99.90;;;;;;12375043;28;19930;-86
2022/12/10 14:25:56;;;;;;;;;;;0.20;99.90;;;;;;12393731;28;19926;-86
2022/12/10 14:31:57;;;;;;;;;;;0.30;99.90;;;;;;12362411;28;20405;-87
2022/12/10 14:37:59;;;;;;;;;;;0.30;99.90;;;;;;12384936;28;19948;-86
2022/12/10 14:44:04;;;;;;;;;;;0.30;99.90;;;;;;12376871;28;19925;-86
2022/12/10 14:50:10;;;;;;;;;;;0.30;99.90;;;;;;12404261;28;19926;-86
2022/12/10 14:56:17;;;;;;;;;;;0.30;99.90;;;;;;12400884;28;19933;-86
2022/12/10 15:02:24;;;;;;;;;;;0.20;99.90;;;;;;12380626;28;20316;-87
2022/12/10 15:08:26;;;;;;;;;;;0.20;99.90;;;;;;12413887;28;19937;-86
2022/12/10 15:14:29;;;;;;;;;;;0.10;99.90;;;;;;12375936;28;19926;-86
2022/12/10 15:20:47;;;;;;;;;;;0.10;99.90;;;;;;12373547;28;19933;-87
2022/12/10 15:26:49;;;;;;;;;;;0.10;99.90;;;;;;12393775;28;20396;-87
2022/12/10 15:32:52;;;;;;;;;;;-0.10;99.90;;;;;;12368952;28;19938;-86
2022/12/10 15:38:53;;;;;;;;;;;-0.20;99.90;;;;;;12372205;28;19934;-86
2022/12/10 15:44:58;;;;;;;;;;;-0.20;99.90;;;;;;12380950;28;19926;-86
2022/12/10 15:51:01;;;;;;;;;;;-0.30;99.90;;;;;;12388780;28;20289;-86
2022/12/10 15:57:20;;;;;;;;;;;-0.10;99.90;;;;;;12383630;28;19934;-86
2022/12/10 16:03:23;;;;;;;;;;;-0.10;99.90;;;;;;12400850;28;19936;-86
2022/12/10 16:09:25;;;;;;;;;;;-0.10;99.90;;;;;;12391627;28;19933;-86
2022/12/10 16:15:29;;;;;;;;;;;-0.30;99.90;;;;;;12373028;28;20334;-86
2022/12/10 16:21:30;;;;;;;;;;;-0.10;99.90;;;;;;12384948;28;19926;-85
2022/12/10 16:27:32;;;;;;;;;;;-0.20;99.90;;;;;;12391542;28;19926;-86
2022/12/10 16:33:34;;;;;;;;;;;-0.20;99.90;;;;;;12383505;28;20305;-87
2022/12/10 16:39:36;;;;;;;;;;;-0.20;99.90;;;;;;12381796;28;19933;-87
2022/12/10 16:45:38;;;;;;;;;;;-0.10;99.90;;;;;;12396413;28;19932;-86
2022/12/10 16:51:42;;;;;;;;;;;-0.30;99.90;;;;;;12386858;28;19926;-86
2022/12/10 16:57:45;;;;;;;;;;;-0.30;99.90;;;;;;12384063;28;19926;-86
2022/12/10 17:03:48;;;;;;;;;;;-0.20;99.90;;;;;;12379568;28;19926;-86
2022/12/10 17:09:50;;;;;;;;;;;-0.10;99.90;;;;;;12380978;28;19930;-86
2022/12/10 17:15:52;;;;;;;;;;;-0.10;99.90;;;;;;12381763;28;19933;-86
2022/12/10 17:21:53;;;;;;;;;;;-0.30;99.90;;;;;;12379991;28;19925;-86
2022/12/10 17:27:55;;;;;;;;;;;-0.30;99.90;;;;;;12381645;28;19938;-86
2022/12/10 17:33:57;;;;;;;;;;;-0.30;99.90;;;;;;12390939;28;19933;-86
2022/12/10 17:39:59;;;;;;;;;;;-0.30;99.90;;;;;;12400566;28;19925;-86
2022/12/10 17:46:00;;;;;;;;;;;-0.20;99.90;;;;;;12376927;28;19926;-86
2022/12/10 17:52:02;;;;;;;;;;;-0.20;99.90;;;;;;12403173;28;19945;-86
2022/12/10 17:58:04;;;;;;;;;;;-0.20;99.90;;;;;;12371282;28;20374;-86
2022/12/10 18:04:06;;;;;;;;;;;-0.30;99.90;;;;;;12373443;28;19933;-87
2022/12/10 18:10:15;;;;;;;;;;;-0.30;99.90;;;;;;12376883;28;19937;-86
2022/12/10 18:16:19;;;;;;;;;;;-0.30;99.90;;;;;;12387626;28;19933;-86
2022/12/10 18:22:21;;;;;;;;;;;-0.20;99.90;;;;;;12370750;28;19930;-86
2022/12/10 18:28:24;;;;;;;;;;;-0.30;99.90;;;;;;12374722;28;19939;-87
2022/12/10 18:34:26;;;;;;;;;;;-0.30;99.90;;;;;;12390135;28;19988;-86
2022/12/10 18:40:27;;;;;;;;;;;-0.30;99.90;;;;;;12366726;28;19926;-86
2022/12/10 18:46:29;;;;;;;;;;;-0.30;99.90;;;;;;12370326;28;19926;-86
2022/12/10 18:52:31;;;;;;;;;;;-0.30;99.90;;;;;;12388317;28;19926;-86
2022/12/10 18:58:32;;;;;;;;;;;-0.30;99.90;;;;;;12367974;28;19933;-86
2022/12/10 19:04:34;;;;;;;;;;;-0.30;99.90;;;;;;12373188;28;19926;-86
2022/12/10 19:10:36;;;;;;;;;;;-0.30;99.90;;;;;;12388954;28;19930;-86
2022/12/10 19:16:37;;;;;;;;;;;-0.30;99.90;;;;;;12367051;28;19926;-86
2022/12/10 19:22:39;;;;;;;;;;;-0.30;99.90;;;;;;12374956;28;19962;-86
2022/12/10 19:28:41;;;;;;;;;;;-0.30;99.90;;;;;;12391076;28;19929;-86
2022/12/10 19:34:42;;;;;;;;;;;-0.30;99.90;;;;;;12382511;28;20079;-87
2022/12/10 19:40:47;;;;;;;;;;;-0.30;99.90;;;;;;12377575;28;19929;-86
2022/12/10 19:46:49;;;;;;;;;;;-0.30;99.90;;;;;;12397672;28;20028;-87
2022/12/10 19:52:51;;;;;;;;;;;-0.20;99.90;;;;;;12412069;28;19977;-87
2022/12/10 19:58:54;;;;;;;;;;;-0.30;99.90;;;;;;12392259;28;19987;-86
2022/12/10 20:04:55;;;;;;;;;;;-0.30;99.90;;;;;;12376029;28;19934;-86
2022/12/10 20:10:57;;;;;;;;;;;-0.20;99.90;;;;;;12408074;28;19933;-86
2022/12/10 20:16:59;;;;;;;;;;;-0.20;99.90;;;;;;12387369;28;19933;-86
2022/12/10 20:23:01;;;;;;;;;;;-0.20;99.90;;;;;;12381812;28;19926;-86
2022/12/10 20:29:06;;;;;;;;;;;-0.20;99.90;;;;;;12384429;28;19930;-86
2022/12/10 20:35:07;;;;;;;;;;;-0.30;99.90;;;;;;12396660;28;19937;-86
2022/12/10 20:41:10;;;;;;;;;;;-0.30;99.90;;;;;;12372244;28;20008;-86
2022/12/10 20:47:12;;;;;;;;;;;-0.20;99.90;;;;;;12395086;28;20286;-86
2022/12/10 20:53:13;;;;;;;;;;;-0.30;99.90;;;;;;12386470;28;20293;-86
2022/12/10 20:59:16;;;;;;;;;;;-0.30;99.90;;;;;;12387318;28;20387;-86
2022/12/10 21:05:17;;;;;;;;;;;-0.20;99.90;;;;;;12379316;28;19926;-86
2022/12/10 21:11:19;;;;;;;;;;;-0.20;99.90;;;;;;12394893;28;19932;-86
2022/12/10 21:17:21;;;;;;;;;;;-0.20;99.90;;;;;;12377900;28;19937;-87
2022/12/10 21:23:24;;;;;;;;;;;-0.10;99.90;;;;;;12382366;28;19926;-86
2022/12/10 21:29:26;;;;;;;;;;;-0.10;99.90;;;;;;12382180;28;19937;-86
2022/12/10 21:35:28;;;;;;;;;;;-0.10;99.90;;;;;;12371621;28;19961;-86
2022/12/10 21:47:52;;;;;;;;;;;-0.10;99.90;;;;;;12384438;28;19926;-86
2022/12/10 21:53:54;;;;;;;;;;;-0.20;99.90;;;;;;12388296;28;19965;-86
2022/12/10 21:59:57;;;;;;;;;;;-0.20;99.90;;;;;;12369745;28;21398;-86
2022/12/10 22:05:59;;;;;;;;;;;-0.20;99.90;;;;;;12391859;28;19930;-86
2022/12/10 22:12:01;;;;;;;;;;;-0.20;99.90;;;;;;12396044;28;20302;-86
2022/12/10 22:18:02;;;;;;;;;;;-0.20;99.90;;;;;;12396401;28;19926;-86
2022/12/10 22:24:04;;;;;;;;;;;-0.20;99.90;;;;;;12370639;28;20007;-86
2022/12/10 22:30:07;;;;;;;;;;;-0.20;99.90;;;;;;12395860;28;19929;-86
2022/12/10 22:36:09;;;;;;;;;;;-0.20;99.90;;;;;;12365125;28;19933;-86
2022/12/10 22:42:11;;;;;;;;;;;-0.20;99.90;;;;;;12369425;28;19933;-86
2022/12/10 22:48:12;;;;;;;;;;;-0.20;99.90;;;;;;12364812;28;19937;-86
2022/12/10 22:54:14;;;;;;;;;;;-0.10;99.90;;;;;;12391668;28;19930;-86
2022/12/10 23:00:18;;;;;;;;;;;-0.20;99.90;;;;;;12368296;28;19933;-86
2022/12/10 23:06:20;;;;;;;;;;;-0.20;99.90;;;;;;12368439;28;19925;-86
2022/12/10 23:18:42;;;;;;;;;;;-0.10;99.90;;;;;;12388971;28;19945;-86
2022/12/10 23:24:44;;;;;;;;;;;-0.10;99.90;;;;;;12381569;28;19983;-86
2022/12/10 23:30:53;;;;;;;;;;;-0.20;99.90;;;;;;12409764;28;20718;-86
2022/12/10 23:36:55;;;;;;;;;;;-0.20;99.90;;;;;;12389326;28;19941;-86
2022/12/10 23:42:56;;;;;;;;;;;-0.30;99.90;;;;;;12375441;28;20031;-86
2022/12/10 23:48:58;;;;;;;;;;;-0.30;99.90;;;;;;12381806;28;19933;-86
2022/12/10 23:55:00;;;;;;;;;;;-0.20;99.90;;;;;;12390645;28;19936;-86
